sensor_id;sensor_type;location;lat;lon;timestamp;pressure;altitude;pressure_sealevel;temperature;humidity
5284;BME280;15377;48.540;9.268;2023-03-13T00:01:13;97029.13;;;8.59;100.00
5284;BME280;15377;48.540;9.268;2023-03-13T00:03:38;97027.97;;;8.51;100.00
5284;BME280;15377;48.540;9.268;2023-03-13T00:06:04;97017.34;;;8.44;100.00
5284;BME280;15377;48.540;9.268;2023-03-13T00:08:29;96988.00;;;8.36;100.00
5284;BME280;15377;48.540;9.268;2023-03-13T00:10:55;97022.47;;;8.51;100.00
5284;BME280;15377;48.540;9.268;2023-03-13T00:13:21;97013.44;;;8.60;100.00
5284;BME280;15377;48.540;9.268;2023-03-13T00:15:46;97006.84;;;8.66;100.00
5284;BME280;15377;48.540;9.268;2023-03-13T00:18:12;97001.50;;;8.86;100.00
5284;BME280;15377;48.540;9.268;2023-03-13T00:20:37;97011.63;;;8.95;100.00
5284;BME280;15377;48.540;9.268;2023-03-13T00:23:03;97003.72;;;8.97;100.00
5284;BME280;15377;48.540;9.268;2023-03-13T00:25:28;97002.50;;;8.98;100.00
5284;BME280;15377;48.540;9.268;2023-03-13T00:27:54;97012.69;;;8.97;100.00
5284;BME280;15377;48.540;9.268;2023-03-13T00:30:19;97000.84;;;8.91;100.00
5284;BME280;15377;48.540;9.268;2023-03-13T00:32:45;97002.06;;;8.90;100.00
5284;BME280;15377;48.540;9.268;2023-03-13T00:35:12;96998.78;;;8.86;100.00
5284;BME280;15377;48.540;9.268;2023-03-13T00:37:38;97002.53;;;8.89;100.00
5284;BME280;15377;48.540;9.268;2023-03-13T00:40:04;97004.72;;;8.85;100.00
5284;BME280;15377;48.540;9.268;2023-03-13T00:42:30;97010.47;;;8.72;100.00
5284;BME280;15377;48.540;9.268;2023-03-13T00:44:55;97006.63;;;8.55;100.00
5284;BME280;15377;48.540;9.268;2023-03-13T00:47:21;97006.81;;;8.52;100.00
5284;BME280;15377;48.540;9.268;2023-03-13T00:49:46;97005.53;;;8.38;100.00
5284;BME280;15377;48.540;9.268;2023-03-13T00:52:11;97007.66;;;8.34;100.00
5284;BME280;15377;48.540;9.268;2023-03-13T00:54:36;97004.03;;;8.28;100.00
5284;BME280;15377;48.540;9.268;2023-03-13T00:57:02;97005.59;;;8.20;100.00
5284;BME280;15377;48.540;9.268;2023-03-13T00:59:27;96999.81;;;8.18;100.00
5284;BME280;15377;48.540;9.268;2023-03-13T01:01:53;96993.56;;;8.18;100.00
5284;BME280;15377;48.540;9.268;2023-03-13T01:04:18;96995.28;;;8.15;100.00
5284;BME280;15377;48.540;9.268;2023-03-13T01:06:43;97000.75;;;8.15;100.00
5284;BME280;15377;48.540;9.268;2023-03-13T01:09:12;96989.47;;;8.22;100.00
5284;BME280;15377;48.540;9.268;2023-03-13T01:11:40;96981.53;;;8.24;100.00
5284;BME280;15377;48.540;9.268;2023-03-13T01:14:09;96980.31;;;8.25;100.00
5284;BME280;15377;48.540;9.268;2023-03-13T01:16:36;96979.38;;;8.28;100.00
5284;BME280;15377;48.540;9.268;2023-03-13T01:19:04;96974.66;;;8.29;100.00
5284;BME280;15377;48.540;9.268;2023-03-13T01:21:30;96963.59;;;8.23;100.00
5284;BME280;15377;48.540;9.268;2023-03-13T01:23:56;96953.69;;;8.17;100.00
5284;BME280;15377;48.540;9.268;2023-03-13T01:26:22;96956.03;;;8.09;100.00
5284;BME280;15377;48.540;9.268;2023-03-13T01:28:48;96951.16;;;8.04;100.00
5284;BME280;15377;48.540;9.268;2023-03-13T01:31:26;96937.63;;;8.01;100.00
5284;BME280;15377;48.540;9.268;2023-03-13T01:33:55;96939.63;;;8.00;100.00
5284;BME280;15377;48.540;9.268;2023-03-13T01:36:21;96940.72;;;7.94;100.00
5284;BME280;15377;48.540;9.268;2023-03-13T01:38:48;96942.88;;;8.13;100.00
5284;BME280;15377;48.540;9.268;2023-03-13T01:41:14;96923.69;;;8.22;100.00
5284;BME280;15377;48.540;9.268;2023-03-13T01:43:39;96933.00;;;8.39;100.00
5284;BME280;15377;48.540;9.268;2023-03-13T01:51:16;96911.47;;;9.14;100.00
5284;BME280;15377;48.540;9.268;2023-03-13T01:53:45;96884.28;;;9.16;100.00
5284;BME280;15377;48.540;9.268;2023-03-13T01:56:39;96912.84;;;9.53;100.00
5284;BME280;15377;48.540;9.268;2023-03-13T01:59:10;96904.00;;;9.63;100.00
5284;BME280;15377;48.540;9.268;2023-03-13T02:01:37;96873.34;;;9.50;100.00
5284;BME280;15377;48.540;9.268;2023-03-13T02:04:04;96900.84;;;9.70;100.00
5284;BME280;15377;48.540;9.268;2023-03-13T02:06:32;96885.47;;;9.78;100.00
5284;BME280;15377;48.540;9.268;2023-03-13T02:09:09;96879.38;;;9.89;100.00
5284;BME280;15377;48.540;9.268;2023-03-13T02:11:49;96884.28;;;9.99;100.00
5284;BME280;15377;48.540;9.268;2023-03-13T02:14:20;96880.75;;;9.99;100.00
5284;BME280;15377;48.540;9.268;2023-03-13T02:16:47;96864.19;;;9.93;100.00
5284;BME280;15377;48.540;9.268;2023-03-13T02:25:19;96873.03;;;10.17;100.00
5284;BME280;15377;48.540;9.268;2023-03-13T02:27:47;96856.13;;;10.24;100.00
5284;BME280;15377;48.540;9.268;2023-03-13T02:30:14;96872.00;;;10.35;100.00
5284;BME280;15377;48.540;9.268;2023-03-13T02:32:41;96860.38;;;10.45;100.00
5284;BME280;15377;48.540;9.268;2023-03-13T02:35:09;96863.38;;;10.47;100.00
5284;BME280;15377;48.540;9.268;2023-03-13T02:37:36;96845.38;;;10.46;100.00
5284;BME280;15377;48.540;9.268;2023-03-13T02:40:06;96864.25;;;10.59;100.00
5284;BME280;15377;48.540;9.268;2023-03-13T02:42:36;96852.19;;;10.76;100.00
5284;BME280;15377;48.540;9.268;2023-03-13T02:45:02;96847.44;;;10.77;100.00
5284;BME280;15377;48.540;9.268;2023-03-13T02:47:28;96837.94;;;10.77;100.00
5284;BME280;15377;48.540;9.268;2023-03-13T02:49:53;96850.47;;;10.79;100.00
5284;BME280;15377;48.540;9.268;2023-03-13T02:52:30;96830.91;;;10.77;100.00
5284;BME280;15377;48.540;9.268;2023-03-13T02:55:18;96833.66;;;10.77;100.00
5284;BME280;15377;48.540;9.268;2023-03-13T02:57:47;96828.97;;;10.82;100.00
5284;BME280;15377;48.540;9.268;2023-03-13T03:00:13;96818.56;;;10.92;100.00
5284;BME280;15377;48.540;9.268;2023-03-13T03:02:41;96813.41;;;11.05;100.00
5284;BME280;15377;48.540;9.268;2023-03-13T03:05:06;96806.03;;;11.22;100.00
5284;BME280;15377;48.540;9.268;2023-03-13T03:07:32;96794.47;;;11.18;100.00
5284;BME280;15377;48.540;9.268;2023-03-13T03:09:57;96803.00;;;11.20;100.00
5284;BME280;15377;48.540;9.268;2023-03-13T03:12:23;96786.69;;;11.16;100.00
5284;BME280;15377;48.540;9.268;2023-03-13T03:14:48;96779.22;;;11.17;100.00
5284;BME280;15377;48.540;9.268;2023-03-13T03:17:13;96781.50;;;11.24;100.00
5284;BME280;15377;48.540;9.268;2023-03-13T03:19:39;96779.78;;;11.26;100.00
5284;BME280;15377;48.540;9.268;2023-03-13T03:22:04;96784.13;;;11.44;100.00
5284;BME280;15377;48.540;9.268;2023-03-13T03:24:29;96775.16;;;11.49;100.00
5284;BME280;15377;48.540;9.268;2023-03-13T03:26:55;96782.72;;;11.54;100.00
5284;BME280;15377;48.540;9.268;2023-03-13T03:29:20;96781.72;;;11.57;100.00
5284;BME280;15377;48.540;9.268;2023-03-13T03:31:46;96760.00;;;11.64;100.00
5284;BME280;15377;48.540;9.268;2023-03-13T03:34:11;96752.47;;;11.65;100.00
5284;BME280;15377;48.540;9.268;2023-03-13T03:36:36;96742.69;;;11.64;100.00
5284;BME280;15377;48.540;9.268;2023-03-13T03:39:02;96747.22;;;11.67;100.00
5284;BME280;15377;48.540;9.268;2023-03-13T03:41:28;96741.19;;;11.63;100.00
5284;BME280;15377;48.540;9.268;2023-03-13T03:43:54;96744.72;;;11.69;100.00
5284;BME280;15377;48.540;9.268;2023-03-13T03:46:19;96756.78;;;11.77;100.00
5284;BME280;15377;48.540;9.268;2023-03-13T03:48:44;96752.03;;;11.83;100.00
5284;BME280;15377;48.540;9.268;2023-03-13T03:51:10;96762.56;;;11.84;100.00
5284;BME280;15377;48.540;9.268;2023-03-13T03:53:35;96766.59;;;11.89;100.00
5284;BME280;15377;48.540;9.268;2023-03-13T03:56:01;96776.66;;;11.92;100.00
5284;BME280;15377;48.540;9.268;2023-03-13T03:58:26;96779.41;;;11.92;100.00
5284;BME280;15377;48.540;9.268;2023-03-13T04:00:53;96779.41;;;11.92;100.00
5284;BME280;15377;48.540;9.268;2023-03-13T04:03:20;96777.38;;;11.87;100.00
5284;BME280;15377;48.540;9.268;2023-03-13T04:05:46;96781.38;;;11.86;100.00
5284;BME280;15377;48.540;9.268;2023-03-13T04:08:11;96768.31;;;11.81;100.00
5284;BME280;15377;48.540;9.268;2023-03-13T04:10:36;96773.34;;;11.77;100.00
5284;BME280;15377;48.540;9.268;2023-03-13T04:13:02;96762.78;;;11.70;100.00
5284;BME280;15377;48.540;9.268;2023-03-13T04:15:27;96771.28;;;11.72;100.00
5284;BME280;15377;48.540;9.268;2023-03-13T04:17:53;96748.22;;;11.64;100.00
5284;BME280;15377;48.540;9.268;2023-03-13T04:20:18;96753.97;;;11.66;100.00
5284;BME280;15377;48.540;9.268;2023-03-13T04:22:43;96762.00;;;11.64;100.00
5284;BME280;15377;48.540;9.268;2023-03-13T04:25:09;96755.41;;;11.56;100.00
5284;BME280;15377;48.540;9.268;2023-03-13T04:27:34;96733.50;;;11.36;100.00
5284;BME280;15377;48.540;9.268;2023-03-13T04:30:00;96751.38;;;11.51;100.00
5284;BME280;15377;48.540;9.268;2023-03-13T04:32:25;96746.88;;;11.54;100.00
5284;BME280;15377;48.540;9.268;2023-03-13T04:34:51;96745.63;;;11.55;100.00
5284;BME280;15377;48.540;9.268;2023-03-13T04:37:16;96745.44;;;11.58;100.00
5284;BME280;15377;48.540;9.268;2023-03-13T04:39:42;96742.94;;;11.60;100.00
5284;BME280;15377;48.540;9.268;2023-03-13T04:42:09;96734.34;;;11.53;100.00
5284;BME280;15377;48.540;9.268;2023-03-13T04:44:34;96715.81;;;11.53;100.00
5284;BME280;15377;48.540;9.268;2023-03-13T04:47:00;96726.34;;;11.55;100.00
5284;BME280;15377;48.540;9.268;2023-03-13T04:49:25;96742.34;;;11.51;100.00
5284;BME280;15377;48.540;9.268;2023-03-13T04:51:51;96727.06;;;11.50;100.00
5284;BME280;15377;48.540;9.268;2023-03-13T04:54:16;96733.59;;;11.52;100.00
5284;BME280;15377;48.540;9.268;2023-03-13T04:56:41;96727.81;;;11.45;100.00
5284;BME280;15377;48.540;9.268;2023-03-13T04:59:07;96732.81;;;11.46;100.00
5284;BME280;15377;48.540;9.268;2023-03-13T05:01:32;96734.81;;;11.46;100.00
5284;BME280;15377;48.540;9.268;2023-03-13T05:03:58;96720.75;;;11.44;100.00
5284;BME280;15377;48.540;9.268;2023-03-13T05:06:23;96699.34;;;11.17;100.00
5284;BME280;15377;48.540;9.268;2023-03-13T05:08:48;96738.50;;;11.32;100.00
5284;BME280;15377;48.540;9.268;2023-03-13T05:11:14;96725.72;;;11.29;100.00
5284;BME280;15377;48.540;9.268;2023-03-13T05:13:39;96725.47;;;11.32;100.00
5284;BME280;15377;48.540;9.268;2023-03-13T05:16:05;96724.47;;;11.30;100.00
5284;BME280;15377;48.540;9.268;2023-03-13T05:18:30;96717.91;;;11.22;100.00
5284;BME280;15377;48.540;9.268;2023-03-13T05:20:56;96721.19;;;11.26;100.00
5284;BME280;15377;48.540;9.268;2023-03-13T05:23:21;96720.91;;;11.24;100.00
5284;BME280;15377;48.540;9.268;2023-03-13T05:25:46;96728.38;;;11.18;100.00
5284;BME280;15377;48.540;9.268;2023-03-13T05:28:12;96724.31;;;11.08;100.00
5284;BME280;15377;48.540;9.268;2023-03-13T05:30:37;96727.53;;;11.01;100.00
5284;BME280;15377;48.540;9.268;2023-03-13T05:33:02;96733.03;;;11.01;100.00
5284;BME280;15377;48.540;9.268;2023-03-13T05:35:28;96731.06;;;11.01;100.00
5284;BME280;15377;48.540;9.268;2023-03-13T05:37:53;96709.47;;;10.94;100.00
5284;BME280;15377;48.540;9.268;2023-03-13T05:40:19;96733.91;;;11.18;100.00
5284;BME280;15377;48.540;9.268;2023-03-13T05:42:44;96727.94;;;11.25;100.00
5284;BME280;15377;48.540;9.268;2023-03-13T05:45:11;96729.50;;;11.37;100.00
5284;BME280;15377;48.540;9.268;2023-03-13T05:47:39;96722.63;;;11.58;100.00
5284;BME280;15377;48.540;9.268;2023-03-13T05:50:06;96713.66;;;11.74;100.00
5284;BME280;15377;48.540;9.268;2023-03-13T05:52:32;96706.66;;;11.78;100.00
5284;BME280;15377;48.540;9.268;2023-03-13T05:54:57;96721.25;;;11.90;100.00
5284;BME280;15377;48.540;9.268;2023-03-13T05:57:23;96712.72;;;11.88;100.00
5284;BME280;15377;48.540;9.268;2023-03-13T05:59:48;96717.28;;;12.02;100.00
5284;BME280;15377;48.540;9.268;2023-03-13T06:02:14;96699.22;;;12.01;100.00
5284;BME280;15377;48.540;9.268;2023-03-13T06:04:39;96695.47;;;12.09;100.00
5284;BME280;15377;48.540;9.268;2023-03-13T06:07:05;96707.03;;;12.13;100.00
5284;BME280;15377;48.540;9.268;2023-03-13T06:09:30;96717.81;;;12.17;100.00
5284;BME280;15377;48.540;9.268;2023-03-13T06:11:55;96702.78;;;12.18;100.00
5284;BME280;15377;48.540;9.268;2023-03-13T06:14:21;96689.22;;;12.14;100.00
5284;BME280;15377;48.540;9.268;2023-03-13T06:16:46;96690.72;;;12.21;100.00
5284;BME280;15377;48.540;9.268;2023-03-13T06:19:11;96700.53;;;12.27;100.00
5284;BME280;15377;48.540;9.268;2023-03-13T06:21:37;96702.53;;;12.38;100.00
5284;BME280;15377;48.540;9.268;2023-03-13T06:24:03;96701.78;;;12.43;100.00
5284;BME280;15377;48.540;9.268;2023-03-13T06:26:28;96696.53;;;12.50;100.00
5284;BME280;15377;48.540;9.268;2023-03-13T06:28:54;96700.56;;;12.55;100.00
5284;BME280;15377;48.540;9.268;2023-03-13T06:31:19;96687.78;;;12.63;100.00
5284;BME280;15377;48.540;9.268;2023-03-13T06:33:45;96702.06;;;12.72;100.00
5284;BME280;15377;48.540;9.268;2023-03-13T06:36:10;96707.09;;;12.68;100.00
5284;BME280;15377;48.540;9.268;2023-03-13T06:38:36;96708.31;;;12.62;100.00
5284;BME280;15377;48.540;9.268;2023-03-13T06:41:02;96715.59;;;12.76;100.00
5284;BME280;15377;48.540;9.268;2023-03-13T06:43:28;96728.16;;;12.82;100.00
5284;BME280;15377;48.540;9.268;2023-03-13T06:45:54;96716.84;;;12.86;100.00
5284;BME280;15377;48.540;9.268;2023-03-13T06:48:19;96718.09;;;12.85;100.00
5284;BME280;15377;48.540;9.268;2023-03-13T06:50:47;96729.69;;;12.94;100.00
5284;BME280;15377;48.540;9.268;2023-03-13T06:53:18;96729.69;;;13.00;100.00
5284;BME280;15377;48.540;9.268;2023-03-13T06:55:44;96713.88;;;13.00;100.00
5284;BME280;15377;48.540;9.268;2023-03-13T06:58:10;96712.09;;;12.97;100.00
5284;BME280;15377;48.540;9.268;2023-03-13T07:00:35;96703.56;;;13.01;100.00
5284;BME280;15377;48.540;9.268;2023-03-13T07:03:04;96706.59;;;13.03;100.00
5284;BME280;15377;48.540;9.268;2023-03-13T07:05:29;96698.78;;;13.07;100.00
5284;BME280;15377;48.540;9.268;2023-03-13T07:07:55;96693.25;;;13.07;100.00
5284;BME280;15377;48.540;9.268;2023-03-13T07:10:20;96694.75;;;13.08;100.00
5284;BME280;15377;48.540;9.268;2023-03-13T07:12:48;96699.78;;;13.15;100.00
5284;BME280;15377;48.540;9.268;2023-03-13T07:15:13;96701.53;;;13.12;100.00
5284;BME280;15377;48.540;9.268;2023-03-13T07:17:41;96697.53;;;13.08;100.00
5284;BME280;15377;48.540;9.268;2023-03-13T07:20:08;96695.50;;;13.19;100.00
5284;BME280;15377;48.540;9.268;2023-03-13T07:22:35;96719.88;;;13.21;100.00
5284;BME280;15377;48.540;9.268;2023-03-13T07:25:01;96713.31;;;13.24;100.00
5284;BME280;15377;48.540;9.268;2023-03-13T07:27:26;96728.66;;;13.30;100.00
5284;BME280;15377;48.540;9.268;2023-03-13T07:29:52;96728.66;;;13.30;100.00
5284;BME280;15377;48.540;9.268;2023-03-13T07:32:17;96729.88;;;13.35;100.00
5284;BME280;15377;48.540;9.268;2023-03-13T07:34:42;96727.38;;;13.37;100.00
5284;BME280;15377;48.540;9.268;2023-03-13T07:37:12;96729.59;;;13.44;100.00
5284;BME280;15377;48.540;9.268;2023-03-13T07:39:37;96725.31;;;13.54;100.00
5284;BME280;15377;48.540;9.268;2023-03-13T07:42:02;96731.06;;;13.67;100.00
5284;BME280;15377;48.540;9.268;2023-03-13T07:44:28;96718.47;;;13.71;100.00
5284;BME280;15377;48.540;9.268;2023-03-13T07:46:53;96717.94;;;13.78;100.00
5284;BME280;15377;48.540;9.268;2023-03-13T07:49:18;96723.41;;;13.89;100.00
5284;BME280;15377;48.540;9.268;2023-03-13T07:51:44;96718.50;;;14.12;100.00
5284;BME280;15377;48.540;9.268;2023-03-13T07:54:12;96737.09;;;14.17;100.00
5284;BME280;15377;48.540;9.268;2023-03-13T07:56:38;96691.44;;;13.94;100.00
5284;BME280;15377;48.540;9.268;2023-03-13T07:59:03;96723.56;;;14.08;100.00
5284;BME280;15377;48.540;9.268;2023-03-13T08:01:29;96707.47;;;14.06;100.00
5284;BME280;15377;48.540;9.268;2023-03-13T08:03:54;96717.50;;;14.15;100.00
5284;BME280;15377;48.540;9.268;2023-03-13T08:06:25;96706.97;;;14.08;100.00
5284;BME280;15377;48.540;9.268;2023-03-13T08:08:51;96694.63;;;14.09;100.00
5284;BME280;15377;48.540;9.268;2023-03-13T08:11:20;96690.38;;;14.08;100.00
5284;BME280;15377;48.540;9.268;2023-03-13T08:13:46;96693.38;;;14.10;100.00
5284;BME280;15377;48.540;9.268;2023-03-13T08:16:19;96698.41;;;14.11;100.00
5284;BME280;15377;48.540;9.268;2023-03-13T08:18:46;96702.91;;;14.20;100.00
5284;BME280;15377;48.540;9.268;2023-03-13T08:21:14;96699.34;;;14.25;100.00
5284;BME280;15377;48.540;9.268;2023-03-13T08:23:40;96690.59;;;14.21;100.00
5284;BME280;15377;48.540;9.268;2023-03-13T08:26:08;96681.31;;;14.13;100.00
5284;BME280;15377;48.540;9.268;2023-03-13T08:28:34;96682.19;;;14.32;100.00
5284;BME280;15377;48.540;9.268;2023-03-13T08:33:41;96672.47;;;14.55;100.00
5284;BME280;15377;48.540;9.268;2023-03-13T08:36:20;96660.72;;;14.73;100.00
5284;BME280;15377;48.540;9.268;2023-03-13T08:38:48;96634.81;;;14.70;100.00
5284;BME280;15377;48.540;9.268;2023-03-13T08:41:16;96621.34;;;14.85;100.00
5284;BME280;15377;48.540;9.268;2023-03-13T08:43:42;96614.81;;;14.82;100.00
5284;BME280;15377;48.540;9.268;2023-03-13T08:46:08;96621.88;;;14.83;100.00
5284;BME280;15377;48.540;9.268;2023-03-13T08:48:33;96618.75;;;14.92;100.00
5284;BME280;15377;48.540;9.268;2023-03-13T08:51:20;96618.47;;;14.96;100.00
5284;BME280;15377;48.540;9.268;2023-03-13T08:53:46;96624.31;;;14.92;100.00
5284;BME280;15377;48.540;9.268;2023-03-13T08:56:14;96607.50;;;14.85;100.00
5284;BME280;15377;48.540;9.268;2023-03-13T08:58:40;96607.78;;;14.81;100.00
5284;BME280;15377;48.540;9.268;2023-03-13T09:01:10;96610.44;;;14.92;100.00
5284;BME280;15377;48.540;9.268;2023-03-13T09:03:36;96612.16;;;14.95;100.00
5284;BME280;15377;48.540;9.268;2023-03-13T09:06:03;96613.66;;;14.96;100.00
5284;BME280;15377;48.540;9.268;2023-03-13T09:08:29;96628.22;;;15.02;100.00
5284;BME280;15377;48.540;9.268;2023-03-13T09:10:59;96626.16;;;15.08;100.00
5284;BME280;15377;48.540;9.268;2023-03-13T09:13:26;96628.38;;;15.10;100.00
5284;BME280;15377;48.540;9.268;2023-03-13T09:15:57;96621.69;;;15.24;100.00
5284;BME280;15377;48.540;9.268;2023-03-13T09:18:23;96632.03;;;15.23;100.00
5284;BME280;15377;48.540;9.268;2023-03-13T09:20:49;96636.41;;;15.37;100.00
5284;BME280;15377;48.540;9.268;2023-03-13T09:23:15;96636.75;;;15.52;100.00
5284;BME280;15377;48.540;9.268;2023-03-13T09:25:40;96638.25;;;15.72;100.00
5284;BME280;15377;48.540;9.268;2023-03-13T09:28:06;96632.13;;;15.97;100.00
5284;BME280;15377;48.540;9.268;2023-03-13T09:30:31;96631.69;;;16.75;100.00
5284;BME280;15377;48.540;9.268;2023-03-13T09:32:56;96638.50;;;17.83;100.00
5284;BME280;15377;48.540;9.268;2023-03-13T09:35:21;96641.75;;;18.82;100.00
5284;BME280;15377;48.540;9.268;2023-03-13T09:37:47;96634.16;;;19.31;100.00
5284;BME280;15377;48.540;9.268;2023-03-13T09:40:14;96639.13;;;19.81;100.00
5284;BME280;15377;48.540;9.268;2023-03-13T09:42:51;96642.41;;;20.88;100.00
5284;BME280;15377;48.540;9.268;2023-03-13T09:45:40;96632.44;;;22.24;96.73
5284;BME280;15377;48.540;9.268;2023-03-13T09:48:18;96629.50;;;21.52;95.17
5284;BME280;15377;48.540;9.268;2023-03-13T09:50:55;96635.69;;;20.76;97.02
5284;BME280;15377;48.540;9.268;2023-03-13T09:53:38;96624.78;;;18.52;100.00
5284;BME280;15377;48.540;9.268;2023-03-13T09:56:12;96634.84;;;18.22;100.00
5284;BME280;15377;48.540;9.268;2023-03-13T09:58:46;96642.03;;;18.30;100.00
5284;BME280;15377;48.540;9.268;2023-03-13T10:01:19;96649.91;;;18.39;100.00
5284;BME280;15377;48.540;9.268;2023-03-13T10:03:57;96636.94;;;17.95;100.00
5284;BME280;15377;48.540;9.268;2023-03-13T10:06:26;96635.47;;;17.81;100.00
5284;BME280;15377;48.540;9.268;2023-03-13T10:08:54;96632.28;;;17.77;100.00
5284;BME280;15377;48.540;9.268;2023-03-13T10:11:59;96639.47;;;17.60;100.00
5284;BME280;15377;48.540;9.268;2023-03-13T10:14:31;96640.88;;;17.66;100.00
5284;BME280;15377;48.540;9.268;2023-03-13T10:17:14;96631.94;;;18.27;100.00
5284;BME280;15377;48.540;9.268;2023-03-13T10:19:46;96618.47;;;18.31;100.00
5284;BME280;15377;48.540;9.268;2023-03-13T10:22:23;96634.13;;;18.08;100.00
5284;BME280;15377;48.540;9.268;2023-03-13T10:25:03;96639.50;;;18.06;100.00
5284;BME280;15377;48.540;9.268;2023-03-13T10:27:42;96638.06;;;19.99;99.29
5284;BME280;15377;48.540;9.268;2023-03-13T10:30:19;96601.69;;;19.84;95.46
5284;BME280;15377;48.540;9.268;2023-03-13T10:32:57;96610.22;;;20.06;96.79
5284;BME280;15377;48.540;9.268;2023-03-13T10:35:29;96610.81;;;21.47;85.93
5284;BME280;15377;48.540;9.268;2023-03-13T10:38:09;96593.63;;;21.73;84.47
5284;BME280;15377;48.540;9.268;2023-03-13T10:40:35;96595.50;;;22.10;80.11
5284;BME280;15377;48.540;9.268;2023-03-13T10:43:04;96577.50;;;21.89;79.37
5284;BME280;15377;48.540;9.268;2023-03-13T10:45:33;96585.59;;;21.70;78.25
5284;BME280;15377;48.540;9.268;2023-03-13T10:48:03;96577.88;;;20.71;84.07
5284;BME280;15377;48.540;9.268;2023-03-13T10:50:35;96572.22;;;20.11;87.80
5284;BME280;15377;48.540;9.268;2023-03-13T10:55:50;96562.84;;;19.50;92.67
5284;BME280;15377;48.540;9.268;2023-03-13T10:58:43;96544.78;;;19.44;93.79
5284;BME280;15377;48.540;9.268;2023-03-13T11:01:20;96536.03;;;19.12;94.37
5284;BME280;15377;48.540;9.268;2023-03-13T11:03:47;96523.28;;;18.96;94.64
5284;BME280;15377;48.540;9.268;2023-03-13T11:06:33;96531.28;;;19.20;95.28
5284;BME280;15377;48.540;9.268;2023-03-13T11:09:16;96520.19;;;19.35;94.98
5284;BME280;15377;48.540;9.268;2023-03-13T11:11:48;96522.50;;;19.59;96.09
5284;BME280;15377;48.540;9.268;2023-03-13T11:14:20;96529.69;;;19.97;94.55
5284;BME280;15377;48.540;9.268;2023-03-13T11:16:54;96521.50;;;19.92;94.11
5284;BME280;15377;48.540;9.268;2023-03-13T11:19:38;96512.88;;;19.67;92.94
5284;BME280;15377;48.540;9.268;2023-03-13T11:24:48;96503.59;;;19.80;94.56
5284;BME280;15377;48.540;9.268;2023-03-13T11:30:00;96494.66;;;19.74;95.68
5284;BME280;15377;48.540;9.268;2023-03-13T11:32:41;96492.97;;;19.71;94.09
5284;BME280;15377;48.540;9.268;2023-03-13T11:35:20;96487.13;;;19.54;94.58
5284;BME280;15377;48.540;9.268;2023-03-13T11:37:53;96479.75;;;19.64;95.32
5284;BME280;15377;48.540;9.268;2023-03-13T11:40:37;96475.66;;;19.65;94.67
5284;BME280;15377;48.540;9.268;2023-03-13T11:48:42;96457.44;;;19.94;94.81
5284;BME280;15377;48.540;9.268;2023-03-13T11:56:48;96426.91;;;20.71;90.72
5284;BME280;15377;48.540;9.268;2023-03-13T12:02:39;96406.25;;;20.59;90.59
5284;BME280;15377;48.540;9.268;2023-03-13T12:05:10;96394.50;;;20.53;88.46
5284;BME280;15377;48.540;9.268;2023-03-13T12:07:41;96392.28;;;20.59;90.12
5284;BME280;15377;48.540;9.268;2023-03-13T12:10:15;96374.78;;;20.43;91.61
5284;BME280;15377;48.540;9.268;2023-03-13T12:13:17;96366.63;;;20.23;93.79
5284;BME280;15377;48.540;9.268;2023-03-13T12:15:50;96356.53;;;19.97;91.90
5284;BME280;15377;48.540;9.268;2023-03-13T12:18:44;96347.25;;;20.10;94.33
5284;BME280;15377;48.540;9.268;2023-03-13T12:21:20;96315.97;;;20.11;92.79
5284;BME280;15377;48.540;9.268;2023-03-13T12:26:38;96324.16;;;20.17;91.98
5284;BME280;15377;48.540;9.268;2023-03-13T12:31:42;96313.50;;;20.38;91.00
5284;BME280;15377;48.540;9.268;2023-03-13T12:34:17;96306.38;;;20.52;88.63
5284;BME280;15377;48.540;9.268;2023-03-13T12:36:57;96298.16;;;20.54;86.28
5284;BME280;15377;48.540;9.268;2023-03-13T12:39:34;96286.38;;;20.70;84.78
5284;BME280;15377;48.540;9.268;2023-03-13T12:44:49;96269.50;;;20.93;81.15
5284;BME280;15377;48.540;9.268;2023-03-13T12:47:20;96260.56;;;20.94;79.32
5284;BME280;15377;48.540;9.268;2023-03-13T12:55:36;96239.59;;;21.03;78.58
5284;BME280;15377;48.540;9.268;2023-03-13T13:00:38;96224.03;;;20.85;75.84
5284;BME280;15377;48.540;9.268;2023-03-13T13:03:17;96218.00;;;20.96;75.37
5284;BME280;15377;48.540;9.268;2023-03-13T13:06:17;96203.75;;;21.09;73.10
5284;BME280;15377;48.540;9.268;2023-03-13T13:09:07;96169.03;;;21.12;74.00
5284;BME280;15377;48.540;9.268;2023-03-13T13:11:44;96170.63;;;21.22;71.42
5284;BME280;15377;48.540;9.268;2023-03-13T13:16:53;96155.66;;;21.52;68.45
5284;BME280;15377;48.540;9.268;2023-03-13T13:24:57;96166.72;;;21.84;66.79
5284;BME280;15377;48.540;9.268;2023-03-13T13:32:46;96130.97;;;21.92;64.65
5284;BME280;15377;48.540;9.268;2023-03-13T13:37:39;96118.09;;;22.06;62.84
5284;BME280;15377;48.540;9.268;2023-03-13T13:42:58;96119.38;;;22.22;64.20
5284;BME280;15377;48.540;9.268;2023-03-13T13:45:37;96115.72;;;22.46;63.56
5284;BME280;15377;48.540;9.268;2023-03-13T13:48:29;96113.53;;;22.54;64.31
5284;BME280;15377;48.540;9.268;2023-03-13T13:53:48;96095.66;;;22.23;63.81
5284;BME280;15377;48.540;9.268;2023-03-13T13:59:04;96075.81;;;22.11;65.58
5284;BME280;15377;48.540;9.268;2023-03-13T14:01:31;96082.97;;;22.05;63.60
5284;BME280;15377;48.540;9.268;2023-03-13T14:06:46;96071.50;;;22.27;63.67
5284;BME280;15377;48.540;9.268;2023-03-13T14:09:30;96057.34;;;22.35;64.15
5284;BME280;15377;48.540;9.268;2023-03-13T14:11:57;96048.44;;;22.46;64.16
5284;BME280;15377;48.540;9.268;2023-03-13T14:14:22;96046.41;;;22.56;62.99
5284;BME280;15377;48.540;9.268;2023-03-13T14:16:50;96043.34;;;22.61;62.91
5284;BME280;15377;48.540;9.268;2023-03-13T14:19:38;96038.97;;;22.41;64.29
5284;BME280;15377;48.540;9.268;2023-03-13T14:22:08;96040.75;;;22.46;64.74
5284;BME280;15377;48.540;9.268;2023-03-13T14:24:33;96039.53;;;22.40;63.38
5284;BME280;15377;48.540;9.268;2023-03-13T14:26:59;96014.78;;;22.46;63.11
5284;BME280;15377;48.540;9.268;2023-03-13T14:29:25;96012.22;;;22.67;62.86
5284;BME280;15377;48.540;9.268;2023-03-13T14:31:56;96027.31;;;22.81;63.99
5284;BME280;15377;48.540;9.268;2023-03-13T14:34:22;96021.50;;;23.14;64.60